Oak Grove, Nebraska
Current Conditions -  °F | °C
As of 8:35 PM on Tuesday 25 Nov 2014 (Local Time) from KHDE Reporting Station
Overcast Overcast  
Wind Chill: 36°   Ceiling: 6500
Heat Index: 44°   Visibility: 10mi
Dew Point: 26°   Wind: 20mph
Humidity: 49%   Direction: 320°NW
Pressure: 29.89"   Gusts: 26mph
Location:  40.1338°N, 99.0101°W
Report Text: KHDE 260235Z AUTO 32017G23KT 10SM BKN065 OVC110 07/M03 A2989 RMK AO2 T00661034
Loading
Personal Weather Stations






























Interactive Weather Map New forecast layout! Learn more

10-Day Weather Forecast

Advertisements
Track Severe Weather on mobile